sensor_id;sensor_type;location;lat;lon;timestamp;P1;durP1;ratioP1;P2;durP2;ratioP2
29214;SDS011;16252;49.816;7.964;2023-03-21T00:01:32;5.53;;;2.67;;
29214;SDS011;16252;49.816;7.964;2023-03-21T00:03:57;4.57;;;2.63;;
29214;SDS011;16252;49.816;7.964;2023-03-21T00:06:22;6.60;;;3.33;;
29214;SDS011;16252;49.816;7.964;2023-03-21T00:08:48;3.97;;;2.30;;
29214;SDS011;16252;49.816;7.964;2023-03-21T00:11:13;4.07;;;2.10;;
29214;SDS011;16252;49.816;7.964;2023-03-21T00:13:39;4.85;;;2.38;;
29214;SDS011;16252;49.816;7.964;2023-03-21T00:18:33;9.10;;;2.42;;
29214;SDS011;16252;49.816;7.964;2023-03-21T00:21:05;4.55;;;2.08;;
29214;SDS011;16252;49.816;7.964;2023-03-21T00:23:32;2.92;;;1.85;;
29214;SDS011;16252;49.816;7.964;2023-03-21T00:25:58;4.85;;;1.90;;
29214;SDS011;16252;49.816;7.964;2023-03-21T00:28:23;3.20;;;1.65;;
29214;SDS011;16252;49.816;7.964;2023-03-21T00:30:49;2.75;;;1.67;;
29214;SDS011;16252;49.816;7.964;2023-03-21T00:33:15;2.95;;;1.80;;
29214;SDS011;16252;49.816;7.964;2023-03-21T00:35:44;2.40;;;1.88;;
29214;SDS011;16252;49.816;7.964;2023-03-21T00:38:12;3.85;;;1.67;;
29214;SDS011;16252;49.816;7.964;2023-03-21T00:40:38;2.40;;;1.52;;
29214;SDS011;16252;49.816;7.964;2023-03-21T00:43:03;1.98;;;1.48;;
29214;SDS011;16252;49.816;7.964;2023-03-21T00:45:29;2.63;;;1.90;;
29214;SDS011;16252;49.816;7.964;2023-03-21T00:47:55;1.75;;;1.42;;
29214;SDS011;16252;49.816;7.964;2023-03-21T00:50:21;4.65;;;2.00;;
29214;SDS011;16252;49.816;7.964;2023-03-21T00:52:46;3.50;;;1.92;;
29214;SDS011;16252;49.816;7.964;2023-03-21T00:55:12;4.93;;;2.30;;
29214;SDS011;16252;49.816;7.964;2023-03-21T00:57:39;3.72;;;1.90;;
29214;SDS011;16252;49.816;7.964;2023-03-21T01:00:05;3.03;;;2.25;;
29214;SDS011;16252;49.816;7.964;2023-03-21T01:02:33;5.87;;;2.37;;
29214;SDS011;16252;49.816;7.964;2023-03-21T01:04:59;5.97;;;2.15;;
29214;SDS011;16252;49.816;7.964;2023-03-21T01:07:24;2.70;;;2.20;;
29214;SDS011;16252;49.816;7.964;2023-03-21T01:09:49;4.20;;;2.42;;
29214;SDS011;16252;49.816;7.964;2023-03-21T01:12:15;4.35;;;2.28;;
29214;SDS011;16252;49.816;7.964;2023-03-21T01:14:40;3.08;;;2.28;;
29214;SDS011;16252;49.816;7.964;2023-03-21T01:17:06;2.85;;;2.20;;
29214;SDS011;16252;49.816;7.964;2023-03-21T01:19:31;2.97;;;2.08;;
29214;SDS011;16252;49.816;7.964;2023-03-21T01:21:57;5.22;;;2.15;;
29214;SDS011;16252;49.816;7.964;2023-03-21T01:24:23;4.07;;;2.30;;
29214;SDS011;16252;49.816;7.964;2023-03-21T01:26:48;6.10;;;3.03;;
29214;SDS011;16252;49.816;7.964;2023-03-21T01:29:13;6.18;;;2.47;;
29214;SDS011;16252;49.816;7.964;2023-03-21T01:31:39;2.63;;;1.75;;
29214;SDS011;16252;49.816;7.964;2023-03-21T01:34:04;6.38;;;2.22;;
29214;SDS011;16252;49.816;7.964;2023-03-21T01:36:30;5.03;;;2.47;;
29214;SDS011;16252;49.816;7.964;2023-03-21T01:38:55;4.30;;;2.50;;
29214;SDS011;16252;49.816;7.964;2023-03-21T01:41:31;3.97;;;2.63;;
29214;SDS011;16252;49.816;7.964;2023-03-21T01:43:59;6.72;;;2.53;;
29214;SDS011;16252;49.816;7.964;2023-03-21T01:46:31;5.13;;;3.05;;
29214;SDS011;16252;49.816;7.964;2023-03-21T01:49:10;3.88;;;2.20;;
29214;SDS011;16252;49.816;7.964;2023-03-21T01:51:41;3.90;;;2.17;;
29214;SDS011;16252;49.816;7.964;2023-03-21T01:54:12;3.58;;;2.17;;
29214;SDS011;16252;49.816;7.964;2023-03-21T01:56:42;3.75;;;2.35;;
29214;SDS011;16252;49.816;7.964;2023-03-21T01:59:11;5.05;;;2.45;;
29214;SDS011;16252;49.816;7.964;2023-03-21T02:01:45;6.15;;;2.60;;
29214;SDS011;16252;49.816;7.964;2023-03-21T02:04:11;3.13;;;2.22;;
29214;SDS011;16252;49.816;7.964;2023-03-21T02:09:21;5.93;;;2.70;;
29214;SDS011;16252;49.816;7.964;2023-03-21T02:11:50;4.13;;;2.40;;
29214;SDS011;16252;49.816;7.964;2023-03-21T02:14:18;5.40;;;2.88;;
29214;SDS011;16252;49.816;7.964;2023-03-21T02:16:56;3.40;;;2.20;;
29214;SDS011;16252;49.816;7.964;2023-03-21T02:22:32;5.40;;;2.03;;
29214;SDS011;16252;49.816;7.964;2023-03-21T02:27:59;4.45;;;2.25;;
29214;SDS011;16252;49.816;7.964;2023-03-21T02:30:59;3.58;;;2.08;;
29214;SDS011;16252;49.816;7.964;2023-03-21T02:33:33;4.20;;;1.58;;
29214;SDS011;16252;49.816;7.964;2023-03-21T02:36:26;2.63;;;1.52;;
29214;SDS011;16252;49.816;7.964;2023-03-21T02:41:46;6.03;;;1.80;;
29214;SDS011;16252;49.816;7.964;2023-03-21T02:46:57;3.33;;;2.13;;
29214;SDS011;16252;49.816;7.964;2023-03-21T02:51:58;6.95;;;2.17;;
29214;SDS011;16252;49.816;7.964;2023-03-21T02:54:26;4.03;;;2.00;;
29214;SDS011;16252;49.816;7.964;2023-03-21T02:56:54;3.33;;;1.83;;
29214;SDS011;16252;49.816;7.964;2023-03-21T02:59:22;3.70;;;1.85;;
29214;SDS011;16252;49.816;7.964;2023-03-21T03:01:50;2.70;;;1.80;;
29214;SDS011;16252;49.816;7.964;2023-03-21T03:04:20;2.80;;;1.80;;
29214;SDS011;16252;49.816;7.964;2023-03-21T03:14:49;3.35;;;1.88;;
29214;SDS011;16252;49.816;7.964;2023-03-21T03:23:27;6.25;;;2.47;;
29214;SDS011;16252;49.816;7.964;2023-03-21T03:25:54;2.88;;;1.77;;
29214;SDS011;16252;49.816;7.964;2023-03-21T03:28:29;4.95;;;2.33;;
29214;SDS011;16252;49.816;7.964;2023-03-21T03:30:57;4.13;;;1.90;;
29214;SDS011;16252;49.816;7.964;2023-03-21T03:33:24;2.85;;;1.98;;
29214;SDS011;16252;49.816;7.964;2023-03-21T03:35:51;4.78;;;2.35;;
29214;SDS011;16252;49.816;7.964;2023-03-21T03:38:20;3.75;;;2.30;;
29214;SDS011;16252;49.816;7.964;2023-03-21T03:40:48;4.95;;;2.40;;
29214;SDS011;16252;49.816;7.964;2023-03-21T03:43:32;3.78;;;2.22;;
29214;SDS011;16252;49.816;7.964;2023-03-21T03:46:11;5.22;;;2.20;;
29214;SDS011;16252;49.816;7.964;2023-03-21T03:48:43;2.55;;;1.95;;
29214;SDS011;16252;49.816;7.964;2023-03-21T03:51:28;7.80;;;2.25;;
29214;SDS011;16252;49.816;7.964;2023-03-21T03:54:03;3.75;;;2.15;;
29214;SDS011;16252;49.816;7.964;2023-03-21T03:56:36;2.92;;;1.70;;
29214;SDS011;16252;49.816;7.964;2023-03-21T03:59:03;4.13;;;1.90;;
29214;SDS011;16252;49.816;7.964;2023-03-21T04:01:29;5.72;;;2.20;;
29214;SDS011;16252;49.816;7.964;2023-03-21T04:03:54;3.78;;;1.90;;
29214;SDS011;16252;49.816;7.964;2023-03-21T04:06:20;4.88;;;2.50;;
29214;SDS011;16252;49.816;7.964;2023-03-21T04:08:46;3.45;;;1.98;;
29214;SDS011;16252;49.816;7.964;2023-03-21T04:11:15;4.00;;;2.40;;
29214;SDS011;16252;49.816;7.964;2023-03-21T04:13:40;4.82;;;2.28;;
29214;SDS011;16252;49.816;7.964;2023-03-21T04:16:06;4.95;;;2.30;;
29214;SDS011;16252;49.816;7.964;2023-03-21T04:18:33;6.80;;;2.33;;
29214;SDS011;16252;49.816;7.964;2023-03-21T04:20:58;4.13;;;2.03;;
29214;SDS011;16252;49.816;7.964;2023-03-21T04:23:24;3.88;;;2.38;;
29214;SDS011;16252;49.816;7.964;2023-03-21T04:25:50;5.78;;;2.05;;
29214;SDS011;16252;49.816;7.964;2023-03-21T04:28:15;4.05;;;2.28;;
29214;SDS011;16252;49.816;7.964;2023-03-21T04:30:41;4.43;;;1.77;;
29214;SDS011;16252;49.816;7.964;2023-03-21T04:33:06;3.38;;;2.10;;
29214;SDS011;16252;49.816;7.964;2023-03-21T04:35:32;4.70;;;2.22;;
29214;SDS011;16252;49.816;7.964;2023-03-21T04:37:58;5.90;;;2.00;;
29214;SDS011;16252;49.816;7.964;2023-03-21T04:40:23;6.55;;;2.35;;
29214;SDS011;16252;49.816;7.964;2023-03-21T04:42:49;4.60;;;2.40;;
29214;SDS011;16252;49.816;7.964;2023-03-21T04:45:15;3.88;;;2.10;;
29214;SDS011;16252;49.816;7.964;2023-03-21T04:47:41;3.38;;;2.22;;
29214;SDS011;16252;49.816;7.964;2023-03-21T04:50:07;4.53;;;2.30;;
29214;SDS011;16252;49.816;7.964;2023-03-21T04:52:34;3.28;;;2.28;;
29214;SDS011;16252;49.816;7.964;2023-03-21T04:54:59;3.08;;;2.00;;
29214;SDS011;16252;49.816;7.964;2023-03-21T04:57:26;4.90;;;2.30;;
29214;SDS011;16252;49.816;7.964;2023-03-21T04:59:51;3.47;;;2.50;;
29214;SDS011;16252;49.816;7.964;2023-03-21T05:02:16;3.03;;;2.10;;
29214;SDS011;16252;49.816;7.964;2023-03-21T05:04:42;5.28;;;2.58;;
29214;SDS011;16252;49.816;7.964;2023-03-21T05:07:07;6.10;;;2.78;;
29214;SDS011;16252;49.816;7.964;2023-03-21T05:09:33;5.05;;;2.42;;
29214;SDS011;16252;49.816;7.964;2023-03-21T05:11:58;4.15;;;2.42;;
29214;SDS011;16252;49.816;7.964;2023-03-21T05:14:24;4.05;;;2.45;;
29214;SDS011;16252;49.816;7.964;2023-03-21T05:16:50;3.58;;;2.47;;
29214;SDS011;16252;49.816;7.964;2023-03-21T05:19:17;3.90;;;2.65;;
29214;SDS011;16252;49.816;7.964;2023-03-21T05:21:44;7.45;;;2.53;;
29214;SDS011;16252;49.816;7.964;2023-03-21T05:24:14;5.15;;;2.20;;
29214;SDS011;16252;49.816;7.964;2023-03-21T05:26:41;5.32;;;2.60;;
29214;SDS011;16252;49.816;7.964;2023-03-21T05:29:08;4.90;;;2.13;;
29214;SDS011;16252;49.816;7.964;2023-03-21T05:31:34;3.35;;;2.22;;
29214;SDS011;16252;49.816;7.964;2023-03-21T05:34:00;4.40;;;2.47;;
29214;SDS011;16252;49.816;7.964;2023-03-21T05:36:25;8.38;;;2.53;;
29214;SDS011;16252;49.816;7.964;2023-03-21T05:38:51;7.60;;;2.30;;
29214;SDS011;16252;49.816;7.964;2023-03-21T05:41:16;4.15;;;2.10;;
29214;SDS011;16252;49.816;7.964;2023-03-21T05:43:42;4.60;;;2.33;;
29214;SDS011;16252;49.816;7.964;2023-03-21T05:46:08;5.05;;;2.65;;
29214;SDS011;16252;49.816;7.964;2023-03-21T05:48:33;3.15;;;2.38;;
29214;SDS011;16252;49.816;7.964;2023-03-21T05:50:59;4.32;;;2.47;;
29214;SDS011;16252;49.816;7.964;2023-03-21T05:53:25;3.55;;;2.15;;
29214;SDS011;16252;49.816;7.964;2023-03-21T05:55:50;4.97;;;2.38;;
29214;SDS011;16252;49.816;7.964;2023-03-21T05:58:16;3.85;;;2.40;;
29214;SDS011;16252;49.816;7.964;2023-03-21T06:00:41;4.15;;;2.65;;
29214;SDS011;16252;49.816;7.964;2023-03-21T06:03:06;5.15;;;2.50;;
29214;SDS011;16252;49.816;7.964;2023-03-21T06:05:32;4.97;;;2.30;;
29214;SDS011;16252;49.816;7.964;2023-03-21T06:07:57;7.07;;;2.85;;
29214;SDS011;16252;49.816;7.964;2023-03-21T06:10:22;6.20;;;2.55;;
29214;SDS011;16252;49.816;7.964;2023-03-21T06:12:48;7.15;;;2.58;;
29214;SDS011;16252;49.816;7.964;2023-03-21T06:15:13;3.30;;;2.47;;
29214;SDS011;16252;49.816;7.964;2023-03-21T06:17:39;6.65;;;3.03;;
29214;SDS011;16252;49.816;7.964;2023-03-21T06:20:05;4.60;;;2.92;;
29214;SDS011;16252;49.816;7.964;2023-03-21T06:22:32;6.75;;;2.88;;
29214;SDS011;16252;49.816;7.964;2023-03-21T06:24:58;4.80;;;3.00;;
29214;SDS011;16252;49.816;7.964;2023-03-21T06:27:23;6.78;;;4.00;;
29214;SDS011;16252;49.816;7.964;2023-03-21T06:29:49;7.95;;;3.28;;
29214;SDS011;16252;49.816;7.964;2023-03-21T06:32:15;6.15;;;3.30;;
29214;SDS011;16252;49.816;7.964;2023-03-21T06:34:40;5.20;;;3.40;;
29214;SDS011;16252;49.816;7.964;2023-03-21T06:37:06;5.45;;;3.35;;
29214;SDS011;16252;49.816;7.964;2023-03-21T06:39:31;6.63;;;3.70;;
29214;SDS011;16252;49.816;7.964;2023-03-21T06:41:57;5.22;;;3.45;;
29214;SDS011;16252;49.816;7.964;2023-03-21T06:44:22;5.63;;;3.25;;
29214;SDS011;16252;49.816;7.964;2023-03-21T06:46:48;7.78;;;3.25;;
29214;SDS011;16252;49.816;7.964;2023-03-21T06:49:14;4.22;;;3.00;;
29214;SDS011;16252;49.816;7.964;2023-03-21T06:51:39;8.88;;;3.95;;
29214;SDS011;16252;49.816;7.964;2023-03-21T06:54:04;6.18;;;3.65;;
29214;SDS011;16252;49.816;7.964;2023-03-21T06:56:30;6.15;;;3.13;;
29214;SDS011;16252;49.816;7.964;2023-03-21T06:58:55;5.00;;;2.97;;
29214;SDS011;16252;49.816;7.964;2023-03-21T07:01:20;9.98;;;2.78;;
29214;SDS011;16252;49.816;7.964;2023-03-21T07:03:46;6.60;;;3.25;;
29214;SDS011;16252;49.816;7.964;2023-03-21T07:06:11;6.43;;;3.17;;
29214;SDS011;16252;49.816;7.964;2023-03-21T07:08:37;4.03;;;2.50;;
29214;SDS011;16252;49.816;7.964;2023-03-21T07:11:04;6.75;;;3.22;;
29214;SDS011;16252;49.816;7.964;2023-03-21T07:13:30;7.10;;;3.47;;
29214;SDS011;16252;49.816;7.964;2023-03-21T07:15:55;6.25;;;3.20;;
29214;SDS011;16252;49.816;7.964;2023-03-21T07:18:21;6.68;;;3.20;;
29214;SDS011;16252;49.816;7.964;2023-03-21T07:20:47;7.00;;;3.35;;
29214;SDS011;16252;49.816;7.964;2023-03-21T07:23:17;6.88;;;3.75;;
29214;SDS011;16252;49.816;7.964;2023-03-21T07:25:45;7.28;;;3.60;;
29214;SDS011;16252;49.816;7.964;2023-03-21T07:28:11;6.03;;;3.85;;
29214;SDS011;16252;49.816;7.964;2023-03-21T07:30:37;7.55;;;4.57;;
29214;SDS011;16252;49.816;7.964;2023-03-21T07:33:02;7.57;;;3.83;;
29214;SDS011;16252;49.816;7.964;2023-03-21T07:35:28;7.28;;;3.25;;
29214;SDS011;16252;49.816;7.964;2023-03-21T07:37:53;5.53;;;3.42;;
29214;SDS011;16252;49.816;7.964;2023-03-21T07:40:19;7.35;;;3.17;;
29214;SDS011;16252;49.816;7.964;2023-03-21T07:42:44;5.38;;;2.90;;
29214;SDS011;16252;49.816;7.964;2023-03-21T07:45:12;7.25;;;3.40;;
29214;SDS011;16252;49.816;7.964;2023-03-21T07:47:41;5.33;;;2.90;;
29214;SDS011;16252;49.816;7.964;2023-03-21T07:50:07;4.82;;;2.92;;
29214;SDS011;16252;49.816;7.964;2023-03-21T07:52:32;5.43;;;3.05;;
29214;SDS011;16252;49.816;7.964;2023-03-21T07:54:58;7.15;;;3.75;;
29214;SDS011;16252;49.816;7.964;2023-03-21T07:57:23;4.45;;;3.05;;
29214;SDS011;16252;49.816;7.964;2023-03-21T07:59:48;4.07;;;2.38;;
29214;SDS011;16252;49.816;7.964;2023-03-21T08:02:14;3.63;;;2.50;;
29214;SDS011;16252;49.816;7.964;2023-03-21T08:04:41;5.28;;;3.00;;
29214;SDS011;16252;49.816;7.964;2023-03-21T08:07:06;9.35;;;3.13;;
29214;SDS011;16252;49.816;7.964;2023-03-21T08:09:31;3.90;;;3.15;;
29214;SDS011;16252;49.816;7.964;2023-03-21T08:11:57;3.72;;;2.67;;
29214;SDS011;16252;49.816;7.964;2023-03-21T08:14:22;4.60;;;2.63;;
29214;SDS011;16252;49.816;7.964;2023-03-21T08:16:47;7.40;;;3.03;;
29214;SDS011;16252;49.816;7.964;2023-03-21T08:19:13;3.83;;;2.75;;
29214;SDS011;16252;49.816;7.964;2023-03-21T08:21:38;5.43;;;2.63;;
29214;SDS011;16252;49.816;7.964;2023-03-21T08:24:04;6.25;;;2.83;;
29214;SDS011;16252;49.816;7.964;2023-03-21T08:26:31;4.20;;;2.30;;
29214;SDS011;16252;49.816;7.964;2023-03-21T08:28:56;5.55;;;2.42;;
29214;SDS011;16252;49.816;7.964;2023-03-21T08:31:21;6.28;;;2.78;;
29214;SDS011;16252;49.816;7.964;2023-03-21T08:33:47;6.00;;;2.22;;
29214;SDS011;16252;49.816;7.964;2023-03-21T08:36:17;4.85;;;2.25;;
29214;SDS011;16252;49.816;7.964;2023-03-21T08:38:42;4.57;;;1.98;;
29214;SDS011;16252;49.816;7.964;2023-03-21T08:41:09;6.63;;;2.33;;
29214;SDS011;16252;49.816;7.964;2023-03-21T08:43:35;4.80;;;2.53;;
29214;SDS011;16252;49.816;7.964;2023-03-21T08:46:01;4.75;;;2.33;;
29214;SDS011;16252;49.816;7.964;2023-03-21T08:48:28;5.75;;;2.88;;
29214;SDS011;16252;49.816;7.964;2023-03-21T08:50:53;5.22;;;3.17;;
29214;SDS011;16252;49.816;7.964;2023-03-21T08:53:18;4.18;;;2.60;;
29214;SDS011;16252;49.816;7.964;2023-03-21T08:55:43;4.90;;;3.13;;
29214;SDS011;16252;49.816;7.964;2023-03-21T08:58:09;6.88;;;2.90;;
29214;SDS011;16252;49.816;7.964;2023-03-21T09:00:35;9.25;;;3.83;;
29214;SDS011;16252;49.816;7.964;2023-03-21T09:03:00;6.75;;;2.75;;
29214;SDS011;16252;49.816;7.964;2023-03-21T09:05:25;9.27;;;3.42;;
29214;SDS011;16252;49.816;7.964;2023-03-21T09:07:52;4.68;;;3.20;;
29214;SDS011;16252;49.816;7.964;2023-03-21T09:10:19;8.50;;;3.20;;
29214;SDS011;16252;49.816;7.964;2023-03-21T09:12:46;6.20;;;2.97;;
29214;SDS011;16252;49.816;7.964;2023-03-21T09:15:12;4.57;;;2.78;;
29214;SDS011;16252;49.816;7.964;2023-03-21T09:17:38;4.60;;;2.92;;
29214;SDS011;16252;49.816;7.964;2023-03-21T09:20:09;10.15;;;3.13;;
29214;SDS011;16252;49.816;7.964;2023-03-21T09:22:37;4.32;;;2.67;;
29214;SDS011;16252;49.816;7.964;2023-03-21T09:25:03;6.53;;;3.15;;
29214;SDS011;16252;49.816;7.964;2023-03-21T09:27:35;4.80;;;2.95;;
29214;SDS011;16252;49.816;7.964;2023-03-21T09:30:01;4.30;;;2.63;;
29214;SDS011;16252;49.816;7.964;2023-03-21T09:32:26;5.88;;;2.65;;
29214;SDS011;16252;49.816;7.964;2023-03-21T09:34:53;3.80;;;2.53;;
29214;SDS011;16252;49.816;7.964;2023-03-21T09:37:19;5.35;;;2.65;;
29214;SDS011;16252;49.816;7.964;2023-03-21T09:39:45;4.45;;;2.80;;
29214;SDS011;16252;49.816;7.964;2023-03-21T09:42:19;4.57;;;3.03;;
29214;SDS011;16252;49.816;7.964;2023-03-21T09:47:30;5.07;;;3.00;;
29214;SDS011;16252;49.816;7.964;2023-03-21T09:50:06;4.38;;;3.25;;
29214;SDS011;16252;49.816;7.964;2023-03-21T09:55:19;5.25;;;3.42;;
29214;SDS011;16252;49.816;7.964;2023-03-21T09:57:48;5.88;;;3.13;;
29214;SDS011;16252;49.816;7.964;2023-03-21T10:00:25;4.28;;;2.63;;
29214;SDS011;16252;49.816;7.964;2023-03-21T10:02:56;4.68;;;2.88;;
29214;SDS011;16252;49.816;7.964;2023-03-21T10:05:26;5.15;;;2.50;;
29214;SDS011;16252;49.816;7.964;2023-03-21T10:10:47;4.55;;;2.45;;
29214;SDS011;16252;49.816;7.964;2023-03-21T10:13:24;5.72;;;2.50;;
29214;SDS011;16252;49.816;7.964;2023-03-21T10:16:00;6.53;;;2.80;;
29214;SDS011;16252;49.816;7.964;2023-03-21T10:18:34;5.13;;;2.45;;
29214;SDS011;16252;49.816;7.964;2023-03-21T10:21:00;3.53;;;2.63;;
29214;SDS011;16252;49.816;7.964;2023-03-21T10:23:28;2.85;;;2.50;;
29214;SDS011;16252;49.816;7.964;2023-03-21T10:25:54;5.40;;;2.72;;
29214;SDS011;16252;49.816;7.964;2023-03-21T10:28:24;5.20;;;2.67;;
29214;SDS011;16252;49.816;7.964;2023-03-21T10:30:53;5.10;;;2.88;;
29214;SDS011;16252;49.816;7.964;2023-03-21T10:33:24;3.63;;;2.53;;
29214;SDS011;16252;49.816;7.964;2023-03-21T10:35:55;4.60;;;2.58;;
29214;SDS011;16252;49.816;7.964;2023-03-21T10:38:56;5.85;;;2.67;;
29214;SDS011;16252;49.816;7.964;2023-03-21T10:41:25;5.55;;;2.70;;
29214;SDS011;16252;49.816;7.964;2023-03-21T10:44:10;6.32;;;2.72;;
29214;SDS011;16252;49.816;7.964;2023-03-21T10:46:53;3.78;;;2.30;;
29214;SDS011;16252;49.816;7.964;2023-03-21T10:49:20;4.80;;;2.25;;
29214;SDS011;16252;49.816;7.964;2023-03-21T10:51:50;4.22;;;2.63;;
29214;SDS011;16252;49.816;7.964;2023-03-21T10:54:18;4.72;;;2.35;;
29214;SDS011;16252;49.816;7.964;2023-03-21T10:57:05;3.60;;;2.17;;
29214;SDS011;16252;49.816;7.964;2023-03-21T10:59:43;5.00;;;2.67;;
29214;SDS011;16252;49.816;7.964;2023-03-21T11:02:17;3.88;;;2.22;;
29214;SDS011;16252;49.816;7.964;2023-03-21T11:04:48;2.55;;;2.03;;
29214;SDS011;16252;49.816;7.964;2023-03-21T11:07:14;3.10;;;2.08;;
29214;SDS011;16252;49.816;7.964;2023-03-21T11:09:52;3.00;;;2.13;;
29214;SDS011;16252;49.816;7.964;2023-03-21T11:12:29;3.08;;;2.30;;
29214;SDS011;16252;49.816;7.964;2023-03-21T11:15:13;2.53;;;2.13;;
29214;SDS011;16252;49.816;7.964;2023-03-21T11:18:16;3.83;;;2.00;;
29214;SDS011;16252;49.816;7.964;2023-03-21T11:20:54;3.28;;;2.20;;
29214;SDS011;16252;49.816;7.964;2023-03-21T11:23:29;2.60;;;2.08;;
29214;SDS011;16252;49.816;7.964;2023-03-21T11:25:56;2.38;;;1.88;;
29214;SDS011;16252;49.816;7.964;2023-03-21T11:28:24;2.53;;;2.03;;
29214;SDS011;16252;49.816;7.964;2023-03-21T11:30:57;4.38;;;2.40;;
29214;SDS011;16252;49.816;7.964;2023-03-21T11:33:25;3.42;;;2.03;;
29214;SDS011;16252;49.816;7.964;2023-03-21T11:36:03;2.63;;;2.00;;
29214;SDS011;16252;49.816;7.964;2023-03-21T11:38:40;2.53;;;2.20;;
29214;SDS011;16252;49.816;7.964;2023-03-21T11:41:06;2.75;;;1.95;;
29214;SDS011;16252;49.816;7.964;2023-03-21T11:43:35;3.00;;;2.22;;
29214;SDS011;16252;49.816;7.964;2023-03-21T11:46:08;3.03;;;2.30;;
29214;SDS011;16252;49.816;7.964;2023-03-21T11:48:38;3.25;;;2.13;;
29214;SDS011;16252;49.816;7.964;2023-03-21T11:51:15;4.43;;;2.25;;
29214;SDS011;16252;49.816;7.964;2023-03-21T11:56:39;3.17;;;2.25;;
29214;SDS011;16252;49.816;7.964;2023-03-21T12:02:10;4.68;;;2.50;;
29214;SDS011;16252;49.816;7.964;2023-03-21T12:07:20;3.85;;;2.38;;
29214;SDS011;16252;49.816;7.964;2023-03-21T12:15:32;4.20;;;3.10;;
29214;SDS011;16252;49.816;7.964;2023-03-21T12:20:52;4.53;;;2.42;;
29214;SDS011;16252;49.816;7.964;2023-03-21T12:26:17;4.20;;;2.28;;
29214;SDS011;16252;49.816;7.964;2023-03-21T12:43:14;5.13;;;2.35;;
29214;SDS011;16252;49.816;7.964;2023-03-21T12:45:54;5.00;;;2.30;;
29214;SDS011;16252;49.816;7.964;2023-03-21T12:48:31;3.47;;;2.10;;
29214;SDS011;16252;49.816;7.964;2023-03-21T12:51:11;2.65;;;2.25;;
29214;SDS011;16252;49.816;7.964;2023-03-21T12:56:12;4.13;;;3.08;;
29214;SDS011;16252;49.816;7.964;2023-03-21T12:58:44;5.05;;;3.22;;
29214;SDS011;16252;49.816;7.964;2023-03-21T13:01:14;3.63;;;2.72;;
29214;SDS011;16252;49.816;7.964;2023-03-21T13:03:43;4.93;;;2.97;;
29214;SDS011;16252;49.816;7.964;2023-03-21T13:06:14;4.85;;;2.85;;
29214;SDS011;16252;49.816;7.964;2023-03-21T13:08:47;4.13;;;3.00;;
29214;SDS011;16252;49.816;7.964;2023-03-21T13:11:18;7.13;;;2.72;;
29214;SDS011;16252;49.816;7.964;2023-03-21T13:14:07;4.97;;;2.60;;
29214;SDS011;16252;49.816;7.964;2023-03-21T13:16:59;5.80;;;3.30;;
29214;SDS011;16252;49.816;7.964;2023-03-21T13:19:33;4.22;;;2.88;;
29214;SDS011;16252;49.816;7.964;2023-03-21T13:22:21;5.20;;;3.15;;
29214;SDS011;16252;49.816;7.964;2023-03-21T13:24:49;3.78;;;2.78;;
29214;SDS011;16252;49.816;7.964;2023-03-21T13:27:29;4.03;;;3.05;;
29214;SDS011;16252;49.816;7.964;2023-03-21T13:37:24;4.10;;;2.70;;
29214;SDS011;16252;49.816;7.964;2023-03-21T13:39:55;4.20;;;2.90;;
29214;SDS011;16252;49.816;7.964;2023-03-21T13:42:28;4.82;;;3.33;;
29214;SDS011;16252;49.816;7.964;2023-03-21T13:44:58;3.75;;;3.20;;
29214;SDS011;16252;49.816;7.964;2023-03-21T13:47:30;4.18;;;3.17;;
29214;SDS011;16252;49.816;7.964;2023-03-21T13:50:20;4.15;;;2.83;;
29214;SDS011;16252;49.816;7.964;2023-03-21T13:55:35;3.75;;;2.60;;
29214;SDS011;16252;49.816;7.964;2023-03-21T14:03:47;6.45;;;3.90;;
29214;SDS011;16252;49.816;7.964;2023-03-21T14:06:13;5.47;;;3.72;;
29214;SDS011;16252;49.816;7.964;2023-03-21T14:08:42;6.15;;;4.10;;
29214;SDS011;16252;49.816;7.964;2023-03-21T14:11:11;5.85;;;3.50;;
29214;SDS011;16252;49.816;7.964;2023-03-21T14:13:41;5.78;;;3.25;;
29214;SDS011;16252;49.816;7.964;2023-03-21T14:16:11;4.82;;;2.97;;
29214;SDS011;16252;49.816;7.964;2023-03-21T14:18:41;5.57;;;3.33;;
29214;SDS011;16252;49.816;7.964;2023-03-21T14:21:20;5.45;;;3.67;;
29214;SDS011;16252;49.816;7.964;2023-03-21T14:23:55;4.18;;;3.00;;
29214;SDS011;16252;49.816;7.964;2023-03-21T14:26:34;3.85;;;3.15;;
29214;SDS011;16252;49.816;7.964;2023-03-21T14:29:05;3.95;;;3.00;;
29214;SDS011;16252;49.816;7.964;2023-03-21T14:31:32;4.32;;;3.20;;
29214;SDS011;16252;49.816;7.964;2023-03-21T14:33:58;3.55;;;2.97;;
29214;SDS011;16252;49.816;7.964;2023-03-21T14:36:27;5.57;;;3.15;;
29214;SDS011;16252;49.816;7.964;2023-03-21T14:39:05;3.60;;;2.60;;
29214;SDS011;16252;49.816;7.964;2023-03-21T14:41:47;4.20;;;2.95;;
29214;SDS011;16252;49.816;7.964;2023-03-21T14:47:04;7.28;;;3.35;;
29214;SDS011;16252;49.816;7.964;2023-03-21T14:49:35;4.18;;;3.20;;
29214;SDS011;16252;49.816;7.964;2023-03-21T14:52:08;8.30;;;3.25;;
29214;SDS011;16252;49.816;7.964;2023-03-21T14:54:38;6.20;;;3.28;;
29214;SDS011;16252;49.816;7.964;2023-03-21T14:57:06;4.82;;;3.40;;
29214;SDS011;16252;49.816;7.964;2023-03-21T14:59:36;4.30;;;3.33;;
29214;SDS011;16252;49.816;7.964;2023-03-21T15:04:48;5.57;;;3.33;;
29214;SDS011;16252;49.816;7.964;2023-03-21T15:07:31;4.75;;;3.90;;
29214;SDS011;16252;49.816;7.964;2023-03-21T15:10:00;3.67;;;2.75;;
29214;SDS011;16252;49.816;7.964;2023-03-21T15:12:45;6.20;;;3.63;;
29214;SDS011;16252;49.816;7.964;2023-03-21T15:15:25;5.95;;;3.45;;
29214;SDS011;16252;49.816;7.964;2023-03-21T15:17:52;3.50;;;3.03;;
29214;SDS011;16252;49.816;7.964;2023-03-21T15:20:20;7.55;;;3.45;;
29214;SDS011;16252;49.816;7.964;2023-03-21T15:22:57;4.38;;;3.28;;
29214;SDS011;16252;49.816;7.964;2023-03-21T15:25:28;3.97;;;3.13;;
29214;SDS011;16252;49.816;7.964;2023-03-21T15:27:56;5.53;;;3.53;;
29214;SDS011;16252;49.816;7.964;2023-03-21T15:30:23;4.82;;;3.63;;
29214;SDS011;16252;49.816;7.964;2023-03-21T15:32:51;4.53;;;3.40;;
29214;SDS011;16252;49.816;7.964;2023-03-21T15:35:19;7.28;;;3.95;;
29214;SDS011;16252;49.816;7.964;2023-03-21T15:37:55;5.20;;;3.35;;
29214;SDS011;16252;49.816;7.964;2023-03-21T15:40:23;4.25;;;3.58;;
29214;SDS011;16252;49.816;7.964;2023-03-21T15:43:02;6.28;;;3.50;;
29214;SDS011;16252;49.816;7.964;2023-03-21T15:45:29;5.32;;;3.45;;
29214;SDS011;16252;49.816;7.964;2023-03-21T15:47:58;6.40;;;3.80;;
29214;SDS011;16252;49.816;7.964;2023-03-21T15:53:36;7.15;;;4.03;;
29214;SDS011;16252;49.816;7.964;2023-03-21T15:55:58;4.25;;;3.25;;
29214;SDS011;16252;49.816;7.964;2023-03-21T15:58:33;23.50;;;8.88;;
29214;SDS011;16252;49.816;7.964;2023-03-21T16:01:19;13.05;;;6.97;;
29214;SDS011;16252;49.816;7.964;2023-03-21T16:03:47;7.68;;;4.90;;
29214;SDS011;16252;49.816;7.964;2023-03-21T16:06:19;8.10;;;4.50;;
29214;SDS011;16252;49.816;7.964;2023-03-21T16:08:51;9.45;;;3.78;;
29214;SDS011;16252;49.816;7.964;2023-03-21T16:11:27;5.35;;;3.63;;
29214;SDS011;16252;49.816;7.964;2023-03-21T16:14:00;9.63;;;4.10;;
29214;SDS011;16252;49.816;7.964;2023-03-21T16:16:26;4.90;;;3.53;;
29214;SDS011;16252;49.816;7.964;2023-03-21T16:18:53;5.05;;;3.58;;
29214;SDS011;16252;49.816;7.964;2023-03-21T16:21:21;6.95;;;3.67;;
29214;SDS011;16252;49.816;7.964;2023-03-21T16:23:48;4.72;;;3.15;;
29214;SDS011;16252;49.816;7.964;2023-03-21T16:26:20;7.32;;;3.83;;
29214;SDS011;16252;49.816;7.964;2023-03-21T16:28:48;7.15;;;3.88;;
29214;SDS011;16252;49.816;7.964;2023-03-21T16:31:18;15.93;;;7.20;;
29214;SDS011;16252;49.816;7.964;2023-03-21T16:33:45;12.98;;;6.43;;
29214;SDS011;16252;49.816;7.964;2023-03-21T16:36:12;11.52;;;5.43;;
29214;SDS011;16252;49.816;7.964;2023-03-21T16:38:39;11.02;;;5.38;;
29214;SDS011;16252;49.816;7.964;2023-03-21T16:41:08;8.20;;;4.55;;
29214;SDS011;16252;49.816;7.964;2023-03-21T16:43:34;7.30;;;4.38;;